sensor_id;sensor_type;location;lat;lon;timestamp;P1;durP1;ratioP1;P2;durP2;ratioP2
51594;SDS011;37677;53.254;6.594;2024-01-15T06:07:59;29.20;;;5.28;;
51594;SDS011;37677;53.254;6.594;2024-01-15T06:10:26;24.48;;;4.97;;
51594;SDS011;37677;53.254;6.594;2024-01-15T06:12:52;23.10;;;4.82;;
51594;SDS011;37677;53.254;6.594;2024-01-15T06:15:18;16.85;;;3.97;;
51594;SDS011;37677;53.254;6.594;2024-01-15T06:17:44;18.33;;;4.15;;
51594;SDS011;37677;53.254;6.594;2024-01-15T06:20:10;13.82;;;3.85;;
51594;SDS011;37677;53.254;6.594;2024-01-15T06:22:37;15.85;;;3.70;;
51594;SDS011;37677;53.254;6.594;2024-01-15T06:25:04;20.50;;;4.45;;
51594;SDS011;37677;53.254;6.594;2024-01-15T06:27:30;21.08;;;4.88;;
51594;SDS011;37677;53.254;6.594;2024-01-15T06:29:57;18.55;;;3.50;;
51594;SDS011;37677;53.254;6.594;2024-01-15T06:32:23;23.50;;;4.85;;
51594;SDS011;37677;53.254;6.594;2024-01-15T06:34:49;20.75;;;4.28;;
51594;SDS011;37677;53.254;6.594;2024-01-15T06:37:15;16.85;;;4.57;;
51594;SDS011;37677;53.254;6.594;2024-01-15T06:39:41;19.35;;;5.57;;
51594;SDS011;37677;53.254;6.594;2024-01-15T06:42:08;28.05;;;6.80;;
51594;SDS011;37677;53.254;6.594;2024-01-15T06:44:34;23.92;;;5.45;;
51594;SDS011;37677;53.254;6.594;2024-01-15T06:47:00;25.05;;;4.13;;
51594;SDS011;37677;53.254;6.594;2024-01-15T06:49:30;17.30;;;3.60;;
51594;SDS011;37677;53.254;6.594;2024-01-15T06:51:56;22.90;;;4.38;;
51594;SDS011;37677;53.254;6.594;2024-01-15T06:54:23;20.02;;;4.43;;
51594;SDS011;37677;53.254;6.594;2024-01-15T06:56:49;22.45;;;4.38;;
51594;SDS011;37677;53.254;6.594;2024-01-15T06:59:15;22.90;;;3.95;;
51594;SDS011;37677;53.254;6.594;2024-01-15T07:01:41;20.15;;;4.72;;
51594;SDS011;37677;53.254;6.594;2024-01-15T07:04:07;22.17;;;3.95;;
51594;SDS011;37677;53.254;6.594;2024-01-15T07:06:34;21.35;;;4.13;;
51594;SDS011;37677;53.254;6.594;2024-01-15T07:09:00;17.92;;;3.83;;
51594;SDS011;37677;53.254;6.594;2024-01-15T07:11:26;11.77;;;3.78;;
51594;SDS011;37677;53.254;6.594;2024-01-15T07:13:52;12.30;;;2.60;;
51594;SDS011;37677;53.254;6.594;2024-01-15T07:16:18;13.77;;;3.00;;
51594;SDS011;37677;53.254;6.594;2024-01-15T07:18:44;12.38;;;3.08;;
51594;SDS011;37677;53.254;6.594;2024-01-15T07:21:10;14.57;;;4.18;;
51594;SDS011;37677;53.254;6.594;2024-01-15T07:23:36;7.72;;;2.35;;
51594;SDS011;37677;53.254;6.594;2024-01-15T07:26:03;13.80;;;3.15;;
51594;SDS011;37677;53.254;6.594;2024-01-15T07:28:30;10.90;;;1.98;;
51594;SDS011;37677;53.254;6.594;2024-01-15T07:30:56;10.75;;;2.35;;
51594;SDS011;37677;53.254;6.594;2024-01-15T07:33:22;14.82;;;3.60;;
51594;SDS011;37677;53.254;6.594;2024-01-15T07:35:48;14.27;;;2.92;;
51594;SDS011;37677;53.254;6.594;2024-01-15T07:38:14;13.70;;;2.97;;
51594;SDS011;37677;53.254;6.594;2024-01-15T07:40:40;9.85;;;2.95;;
51594;SDS011;37677;53.254;6.594;2024-01-15T07:43:06;10.35;;;2.97;;
51594;SDS011;37677;53.254;6.594;2024-01-15T15:37:47;13.73;;;2.67;;
51594;SDS011;37677;53.254;6.594;2024-01-15T15:40:13;12.77;;;2.30;;
51594;SDS011;37677;53.254;6.594;2024-01-15T15:42:40;8.13;;;2.00;;
51594;SDS011;37677;53.254;6.594;2024-01-15T15:45:07;2.47;;;1.13;;
51594;SDS011;37677;53.254;6.594;2024-01-15T15:47:34;2.72;;;0.85;;
51594;SDS011;37677;53.254;6.594;2024-01-15T15:52:49;0.60;;;0.60;;
51594;SDS011;37677;53.254;6.594;2024-01-15T15:55:34;2.28;;;0.93;;
51594;SDS011;37677;53.254;6.594;2024-01-15T15:58:03;3.90;;;1.70;;
51594;SDS011;37677;53.254;6.594;2024-01-15T16:00:36;4.05;;;1.77;;
51594;SDS011;37677;53.254;6.594;2024-01-15T16:03:02;5.57;;;1.92;;
51594;SDS011;37677;53.254;6.594;2024-01-15T16:05:28;6.10;;;1.73;;
51594;SDS011;37677;53.254;6.594;2024-01-15T16:08:03;2.72;;;1.30;;
51594;SDS011;37677;53.254;6.594;2024-01-15T16:10:29;5.43;;;1.52;;
51594;SDS011;37677;53.254;6.594;2024-01-15T16:13:03;5.40;;;2.80;;
51594;SDS011;37677;53.254;6.594;2024-01-15T16:15:29;4.18;;;2.58;;
51594;SDS011;37677;53.254;6.594;2024-01-15T16:18:09;5.90;;;2.20;;
51594;SDS011;37677;53.254;6.594;2024-01-15T16:20:40;4.80;;;1.70;;
51594;SDS011;37677;53.254;6.594;2024-01-15T16:23:19;9.10;;;1.88;;
51594;SDS011;37677;53.254;6.594;2024-01-15T16:25:58;2.65;;;1.50;;
51594;SDS011;37677;53.254;6.594;2024-01-15T16:31:26;6.15;;;1.48;;
51594;SDS011;37677;53.254;6.594;2024-01-15T16:34:05;6.43;;;2.30;;
51594;SDS011;37677;53.254;6.594;2024-01-15T16:36:33;4.90;;;2.30;;
51594;SDS011;37677;53.254;6.594;2024-01-15T16:39:06;5.28;;;1.80;;
51594;SDS011;37677;53.254;6.594;2024-01-15T16:41:38;4.70;;;1.73;;
51594;SDS011;37677;53.254;6.594;2024-01-15T16:44:08;3.33;;;2.17;;
51594;SDS011;37677;53.254;6.594;2024-01-15T16:46:40;5.07;;;1.30;;
51594;SDS011;37677;53.254;6.594;2024-01-15T16:49:06;6.65;;;2.60;;
51594;SDS011;37677;53.254;6.594;2024-01-15T16:51:37;6.45;;;2.45;;
51594;SDS011;37677;53.254;6.594;2024-01-15T16:54:03;7.88;;;3.38;;
51594;SDS011;37677;53.254;6.594;2024-01-15T16:56:38;4.25;;;2.30;;
51594;SDS011;37677;53.254;6.594;2024-01-15T16:59:18;7.15;;;2.47;;
51594;SDS011;37677;53.254;6.594;2024-01-15T17:01:47;4.63;;;2.50;;
51594;SDS011;37677;53.254;6.594;2024-01-15T17:04:17;6.93;;;2.58;;
51594;SDS011;37677;53.254;6.594;2024-01-15T17:06:44;8.60;;;2.50;;
51594;SDS011;37677;53.254;6.594;2024-01-15T17:09:16;7.50;;;2.03;;
51594;SDS011;37677;53.254;6.594;2024-01-15T17:11:47;7.55;;;2.58;;
51594;SDS011;37677;53.254;6.594;2024-01-15T17:14:17;9.20;;;2.97;;
51594;SDS011;37677;53.254;6.594;2024-01-15T17:16:43;6.68;;;1.90;;
51594;SDS011;37677;53.254;6.594;2024-01-15T17:19:43;2.60;;;1.20;;
51594;SDS011;37677;53.254;6.594;2024-01-15T17:22:12;3.63;;;1.58;;
51594;SDS011;37677;53.254;6.594;2024-01-15T17:27:23;2.95;;;1.30;;
51594;SDS011;37677;53.254;6.594;2024-01-15T17:29:55;3.85;;;1.25;;
51594;SDS011;37677;53.254;6.594;2024-01-15T17:32:36;3.47;;;1.65;;
51594;SDS011;37677;53.254;6.594;2024-01-15T17:37:38;3.92;;;1.50;;
51594;SDS011;37677;53.254;6.594;2024-01-15T17:40:16;5.78;;;2.17;;
51594;SDS011;37677;53.254;6.594;2024-01-15T17:42:47;6.63;;;2.83;;
51594;SDS011;37677;53.254;6.594;2024-01-15T17:45:16;5.60;;;2.45;;
51594;SDS011;37677;53.254;6.594;2024-01-15T17:47:49;5.68;;;2.55;;
51594;SDS011;37677;53.254;6.594;2024-01-15T17:50:16;7.82;;;3.25;;
51594;SDS011;37677;53.254;6.594;2024-01-15T17:52:45;8.13;;;2.20;;
51594;SDS011;37677;53.254;6.594;2024-01-15T17:58:02;10.98;;;3.15;;
51594;SDS011;37677;53.254;6.594;2024-01-15T18:04:11;7.00;;;2.00;;
51594;SDS011;37677;53.254;6.594;2024-01-15T18:07:21;9.95;;;3.03;;
51594;SDS011;37677;53.254;6.594;2024-01-15T18:10:00;8.93;;;2.63;;
51594;SDS011;37677;53.254;6.594;2024-01-15T18:12:29;10.18;;;2.42;;
51594;SDS011;37677;53.254;6.594;2024-01-15T18:18:00;8.73;;;2.15;;
51594;SDS011;37677;53.254;6.594;2024-01-15T18:24:32;10.55;;;2.05;;
51594;SDS011;37677;53.254;6.594;2024-01-15T18:27:15;8.85;;;2.38;;
51594;SDS011;37677;53.254;6.594;2024-01-15T18:30:00;7.82;;;1.92;;
51594;SDS011;37677;53.254;6.594;2024-01-15T18:32:52;12.27;;;2.55;;
51594;SDS011;37677;53.254;6.594;2024-01-15T18:35:25;8.38;;;2.78;;
51594;SDS011;37677;53.254;6.594;2024-01-15T18:37:54;8.95;;;2.90;;
51594;SDS011;37677;53.254;6.594;2024-01-15T18:40:26;9.15;;;3.17;;
51594;SDS011;37677;53.254;6.594;2024-01-15T18:45:56;13.35;;;2.05;;
51594;SDS011;37677;53.254;6.594;2024-01-15T18:48:22;9.40;;;2.35;;
51594;SDS011;37677;53.254;6.594;2024-01-15T18:50:48;9.68;;;2.38;;
51594;SDS011;37677;53.254;6.594;2024-01-15T18:53:14;7.35;;;2.25;;
51594;SDS011;37677;53.254;6.594;2024-01-15T18:55:40;7.18;;;2.40;;
51594;SDS011;37677;53.254;6.594;2024-01-15T18:58:06;9.05;;;2.20;;
51594;SDS011;37677;53.254;6.594;2024-01-15T19:00:32;8.32;;;2.10;;
51594;SDS011;37677;53.254;6.594;2024-01-15T19:02:58;5.88;;;1.70;;
51594;SDS011;37677;53.254;6.594;2024-01-15T19:05:26;5.60;;;1.77;;
51594;SDS011;37677;53.254;6.594;2024-01-15T19:07:52;6.53;;;1.67;;
51594;SDS011;37677;53.254;6.594;2024-01-15T19:10:19;6.07;;;1.85;;
51594;SDS011;37677;53.254;6.594;2024-01-15T19:12:45;5.10;;;1.70;;
51594;SDS011;37677;53.254;6.594;2024-01-15T19:15:11;5.50;;;1.80;;
51594;SDS011;37677;53.254;6.594;2024-01-15T19:17:37;5.72;;;1.77;;
51594;SDS011;37677;53.254;6.594;2024-01-15T19:20:06;7.38;;;2.10;;
51594;SDS011;37677;53.254;6.594;2024-01-15T19:22:32;12.07;;;2.78;;
51594;SDS011;37677;53.254;6.594;2024-01-15T19:24:59;8.63;;;2.13;;
51594;SDS011;37677;53.254;6.594;2024-01-15T19:27:26;11.40;;;2.63;;
51594;SDS011;37677;53.254;6.594;2024-01-15T19:29:52;9.40;;;2.25;;
51594;SDS011;37677;53.254;6.594;2024-01-15T19:32:18;11.50;;;2.33;;
51594;SDS011;37677;53.254;6.594;2024-01-15T19:34:45;9.40;;;2.17;;
51594;SDS011;37677;53.254;6.594;2024-01-15T19:37:11;12.02;;;2.30;;
51594;SDS011;37677;53.254;6.594;2024-01-15T19:39:39;11.55;;;2.88;;
51594;SDS011;37677;53.254;6.594;2024-01-15T19:48:58;5.22;;;1.83;;
51594;SDS011;37677;53.254;6.594;2024-01-15T19:51:35;8.45;;;1.50;;
51594;SDS011;37677;53.254;6.594;2024-01-15T19:54:16;6.32;;;2.15;;
51594;SDS011;37677;53.254;6.594;2024-01-15T19:56:55;8.40;;;2.33;;
51594;SDS011;37677;53.254;6.594;2024-01-15T20:02:09;6.53;;;1.60;;
51594;SDS011;37677;53.254;6.594;2024-01-15T20:04:49;10.02;;;2.22;;
51594;SDS011;37677;53.254;6.594;2024-01-15T20:07:26;11.30;;;1.83;;
51594;SDS011;37677;53.254;6.594;2024-01-15T20:10:11;12.57;;;2.20;;
51594;SDS011;37677;53.254;6.594;2024-01-15T20:12:42;14.38;;;2.85;;
51594;SDS011;37677;53.254;6.594;2024-01-15T20:15:30;10.88;;;2.45;;
51594;SDS011;37677;53.254;6.594;2024-01-15T20:21:56;12.15;;;2.33;;
51594;SDS011;37677;53.254;6.594;2024-01-15T20:24:28;11.80;;;2.17;;
51594;SDS011;37677;53.254;6.594;2024-01-15T20:26:59;13.90;;;2.72;;
51594;SDS011;37677;53.254;6.594;2024-01-15T20:29:27;13.02;;;2.72;;
51594;SDS011;37677;53.254;6.594;2024-01-15T20:34:50;9.82;;;2.20;;
51594;SDS011;37677;53.254;6.594;2024-01-15T20:37:17;15.18;;;2.47;;
51594;SDS011;37677;53.254;6.594;2024-01-15T20:39:49;6.93;;;1.85;;
51594;SDS011;37677;53.254;6.594;2024-01-15T20:42:32;6.43;;;1.60;;
51594;SDS011;37677;53.254;6.594;2024-01-15T20:44:58;9.23;;;1.95;;
51594;SDS011;37677;53.254;6.594;2024-01-15T20:47:29;10.52;;;2.30;;
51594;SDS011;37677;53.254;6.594;2024-01-15T20:49:57;9.20;;;1.60;;
51594;SDS011;37677;53.254;6.594;2024-01-15T20:52:25;6.78;;;1.38;;
51594;SDS011;37677;53.254;6.594;2024-01-15T20:54:53;9.70;;;1.80;;
51594;SDS011;37677;53.254;6.594;2024-01-15T20:57:37;6.82;;;1.85;;
51594;SDS011;37677;53.254;6.594;2024-01-15T21:00:26;6.85;;;2.03;;
51594;SDS011;37677;53.254;6.594;2024-01-15T21:06:05;7.72;;;2.15;;
51594;SDS011;37677;53.254;6.594;2024-01-15T21:08:50;8.25;;;1.73;;
51594;SDS011;37677;53.254;6.594;2024-01-15T21:15:17;6.38;;;1.90;;
51594;SDS011;37677;53.254;6.594;2024-01-15T21:17:43;11.65;;;3.03;;
51594;SDS011;37677;53.254;6.594;2024-01-15T21:20:09;15.07;;;3.75;;
51594;SDS011;37677;53.254;6.594;2024-01-15T21:22:36;9.60;;;2.90;;
51594;SDS011;37677;53.254;6.594;2024-01-15T21:25:05;7.40;;;2.70;;
51594;SDS011;37677;53.254;6.594;2024-01-15T21:27:32;7.30;;;2.60;;
51594;SDS011;37677;53.254;6.594;2024-01-15T21:30:01;7.53;;;1.90;;
51594;SDS011;37677;53.254;6.594;2024-01-15T21:32:27;5.55;;;3.15;;
51594;SDS011;37677;53.254;6.594;2024-01-15T21:34:55;13.40;;;5.22;;
51594;SDS011;37677;53.254;6.594;2024-01-15T21:37:21;15.13;;;3.38;;
51594;SDS011;37677;53.254;6.594;2024-01-15T21:39:48;11.25;;;2.13;;
51594;SDS011;37677;53.254;6.594;2024-01-15T21:42:14;6.80;;;1.50;;
51594;SDS011;37677;53.254;6.594;2024-01-15T21:44:40;9.77;;;1.90;;
51594;SDS011;37677;53.254;6.594;2024-01-15T21:47:09;8.55;;;1.80;;
51594;SDS011;37677;53.254;6.594;2024-01-15T21:49:44;5.60;;;1.85;;
51594;SDS011;37677;53.254;6.594;2024-01-15T21:52:12;5.10;;;1.67;;
51594;SDS011;37677;53.254;6.594;2024-01-15T21:54:41;7.93;;;1.50;;
51594;SDS011;37677;53.254;6.594;2024-01-15T21:57:08;5.00;;;1.20;;
51594;SDS011;37677;53.254;6.594;2024-01-15T21:59:34;3.92;;;1.45;;
51594;SDS011;37677;53.254;6.594;2024-01-15T22:02:07;5.43;;;1.40;;
51594;SDS011;37677;53.254;6.594;2024-01-15T22:04:34;5.40;;;1.38;;
51594;SDS011;37677;53.254;6.594;2024-01-15T22:07:04;2.78;;;1.20;;
51594;SDS011;37677;53.254;6.594;2024-01-15T22:09:30;7.13;;;1.50;;
51594;SDS011;37677;53.254;6.594;2024-01-15T22:11:56;3.03;;;1.10;;
51594;SDS011;37677;53.254;6.594;2024-01-15T22:14:22;4.97;;;1.38;;
51594;SDS011;37677;53.254;6.594;2024-01-15T22:16:49;6.50;;;1.20;;
